sensor_id;sensor_type;location;lat;lon;timestamp;pressure;altitude;pressure_sealevel;temperature;humidity
57248;BME280;55809;46.618;10.764;2022-10-30T02:10:12;93869.59;;;11.13;78.60
57248;BME280;55809;46.618;10.764;2022-10-30T02:13:09;93833.94;;;10.86;77.39
57248;BME280;55809;46.618;10.764;2022-10-30T02:32:35;93794.47;;;10.67;76.58
57248;BME280;55809;46.618;10.764;2022-10-30T03:02:43;93834.72;;;10.87;76.63
57248;BME280;55809;46.618;10.764;2022-10-30T08:16:32;93845.94;;;15.65;59.71
57248;BME280;55809;46.618;10.764;2022-10-30T08:18:59;93878.56;;;16.03;59.74
57248;BME280;55809;46.618;10.764;2022-10-30T08:21:26;93881.50;;;16.16;59.32
57248;BME280;55809;46.618;10.764;2022-10-30T08:23:53;93845.06;;;16.06;59.26
57248;BME280;55809;46.618;10.764;2022-10-30T08:26:20;93888.16;;;16.38;59.37
57248;BME280;55809;46.618;10.764;2022-10-30T08:28:49;93878.97;;;16.56;59.21
57248;BME280;55809;46.618;10.764;2022-10-30T08:31:17;93845.25;;;16.46;58.12
57248;BME280;55809;46.618;10.764;2022-10-30T08:33:47;93874.25;;;16.83;56.57
57248;BME280;55809;46.618;10.764;2022-10-30T08:36:14;93858.50;;;16.95;55.30
57248;BME280;55809;46.618;10.764;2022-10-30T08:38:42;93876.69;;;17.25;55.87
57248;BME280;55809;46.618;10.764;2022-10-30T08:41:11;93878.31;;;17.42;56.09
57248;BME280;55809;46.618;10.764;2022-10-30T08:43:39;93829.25;;;17.39;54.47
57248;BME280;55809;46.618;10.764;2022-10-30T08:46:09;93884.13;;;17.64;53.30
57248;BME280;55809;46.618;10.764;2022-10-30T08:52:12;93852.06;;;17.68;50.28
57248;BME280;55809;46.618;10.764;2022-10-30T08:54:40;93840.19;;;17.78;50.50
57248;BME280;55809;46.618;10.764;2022-10-30T08:57:09;93857.06;;;17.93;52.19
57248;BME280;55809;46.618;10.764;2022-10-30T08:59:38;93869.44;;;17.98;51.96
57248;BME280;55809;46.618;10.764;2022-10-30T09:02:20;93849.41;;;17.85;52.47
57248;BME280;55809;46.618;10.764;2022-10-30T09:04:49;93856.84;;;18.20;50.87
57248;BME280;55809;46.618;10.764;2022-10-30T09:14:06;93806.88;;;18.03;51.72
57248;BME280;55809;46.618;10.764;2022-10-30T09:16:58;93812.00;;;18.18;51.00
57248;BME280;55809;46.618;10.764;2022-10-30T09:19:26;93799.19;;;18.15;51.89
57248;BME280;55809;46.618;10.764;2022-10-30T09:22:03;93846.63;;;18.41;50.66
57248;BME280;55809;46.618;10.764;2022-10-30T09:24:31;93840.47;;;18.37;50.99
57248;BME280;55809;46.618;10.764;2022-10-30T09:27:09;93831.84;;;18.38;50.88
57248;BME280;55809;46.618;10.764;2022-10-30T09:29:43;93838.53;;;18.54;50.21
57248;BME280;55809;46.618;10.764;2022-10-30T09:32:12;93842.03;;;18.70;49.09
57248;BME280;55809;46.618;10.764;2022-10-30T09:34:40;93835.28;;;18.75;48.08
57248;BME280;55809;46.618;10.764;2022-10-30T09:37:10;93833.47;;;18.68;48.72
57248;BME280;55809;46.618;10.764;2022-10-30T09:39:39;93832.81;;;18.81;49.90
57248;BME280;55809;46.618;10.764;2022-10-30T09:42:28;93839.81;;;18.82;47.57
57248;BME280;55809;46.618;10.764;2022-10-30T09:48:26;93828.63;;;18.92;47.78
57248;BME280;55809;46.618;10.764;2022-10-30T09:57:59;93798.97;;;18.74;48.52
57248;BME280;55809;46.618;10.764;2022-10-30T10:09:27;93809.81;;;18.78;47.74
57248;BME280;55809;46.618;10.764;2022-10-30T10:11:59;93800.16;;;18.90;46.64
57248;BME280;55809;46.618;10.764;2022-10-30T10:14:31;93799.25;;;19.09;46.33
57248;BME280;55809;46.618;10.764;2022-10-30T10:17:03;93806.47;;;19.32;45.59
57248;BME280;55809;46.618;10.764;2022-10-30T10:19:38;93808.91;;;19.43;46.44
57248;BME280;55809;46.618;10.764;2022-10-30T10:22:16;93808.50;;;19.57;48.22
57248;BME280;55809;46.618;10.764;2022-10-30T10:24:47;93788.09;;;19.75;44.99
57248;BME280;55809;46.618;10.764;2022-10-30T10:27:22;93802.22;;;19.86;43.33
57248;BME280;55809;46.618;10.764;2022-10-30T10:29:58;93798.38;;;19.83;44.18
57248;BME280;55809;46.618;10.764;2022-10-30T10:35:56;93797.53;;;19.99;43.76
57248;BME280;55809;46.618;10.764;2022-10-30T10:38:38;93790.53;;;19.98;43.38
57248;BME280;55809;46.618;10.764;2022-10-30T10:41:19;93756.66;;;19.92;43.03
57248;BME280;55809;46.618;10.764;2022-10-30T10:44:05;93757.63;;;19.98;42.41
57248;BME280;55809;46.618;10.764;2022-10-30T10:50:18;93779.97;;;19.84;46.00
57248;BME280;55809;46.618;10.764;2022-10-30T10:53:06;93746.31;;;19.71;44.86
57248;BME280;55809;46.618;10.764;2022-10-30T11:17:24;93733.13;;;19.53;44.02
57248;BME280;55809;46.618;10.764;2022-10-30T11:19:57;93736.69;;;19.66;45.24
57248;BME280;55809;46.618;10.764;2022-10-30T11:22:30;93738.78;;;19.75;45.25
57248;BME280;55809;46.618;10.764;2022-10-30T11:25:18;93742.94;;;19.79;45.53
57248;BME280;55809;46.618;10.764;2022-10-30T11:27:47;93731.53;;;19.81;46.33
57248;BME280;55809;46.618;10.764;2022-10-30T11:30:19;93704.03;;;19.72;46.22
57248;BME280;55809;46.618;10.764;2022-10-30T11:32:49;93733.19;;;19.91;44.95
57248;BME280;55809;46.618;10.764;2022-10-30T11:35:17;93716.41;;;19.89;46.92
57248;BME280;55809;46.618;10.764;2022-10-30T11:37:46;93697.00;;;19.83;47.08
57248;BME280;55809;46.618;10.764;2022-10-30T11:40:18;93681.47;;;19.80;45.17
57248;BME280;55809;46.618;10.764;2022-10-30T11:42:50;93681.25;;;19.87;43.49
57248;BME280;55809;46.618;10.764;2022-10-30T11:45:24;93688.47;;;19.68;44.62
57248;BME280;55809;46.618;10.764;2022-10-30T11:50:51;93698.06;;;19.60;45.41
57248;BME280;55809;46.618;10.764;2022-10-30T11:53:24;93709.72;;;19.77;45.11
57248;BME280;55809;46.618;10.764;2022-10-30T11:55:56;93644.28;;;19.41;45.98
57248;BME280;55809;46.618;10.764;2022-10-30T11:58:27;93656.69;;;19.45;46.29
57248;BME280;55809;46.618;10.764;2022-10-30T12:01:03;93693.69;;;19.63;45.40
57248;BME280;55809;46.618;10.764;2022-10-30T12:03:37;93681.00;;;19.56;45.21
57248;BME280;55809;46.618;10.764;2022-10-30T12:06:09;93700.50;;;19.58;43.55
57248;BME280;55809;46.618;10.764;2022-10-30T12:08:36;93681.22;;;19.49;44.64
57248;BME280;55809;46.618;10.764;2022-10-30T12:11:04;93689.75;;;19.51;44.68
57248;BME280;55809;46.618;10.764;2022-10-30T12:13:38;93682.88;;;19.59;42.84
57248;BME280;55809;46.618;10.764;2022-10-30T12:16:09;93686.47;;;19.56;44.44
57248;BME280;55809;46.618;10.764;2022-10-30T12:18:40;93647.13;;;19.37;44.59
57248;BME280;55809;46.618;10.764;2022-10-30T12:21:08;93634.75;;;19.20;44.75
57248;BME280;55809;46.618;10.764;2022-10-30T12:23:37;93668.41;;;19.46;45.99
57248;BME280;55809;46.618;10.764;2022-10-30T12:26:08;93670.03;;;19.43;48.19
57248;BME280;55809;46.618;10.764;2022-10-30T12:28:37;93671.16;;;19.59;48.45
57248;BME280;55809;46.618;10.764;2022-10-30T12:31:08;93672.13;;;19.52;48.04
57248;BME280;55809;46.618;10.764;2022-10-30T12:33:41;93634.19;;;19.12;49.88
57248;BME280;55809;46.618;10.764;2022-10-30T12:42:21;93635.38;;;18.40;49.48
57248;BME280;55809;46.618;10.764;2022-10-30T12:44:54;93662.44;;;18.51;50.88
57248;BME280;55809;46.618;10.764;2022-10-30T12:47:31;93651.13;;;18.36;53.47
57248;BME280;55809;46.618;10.764;2022-10-30T12:50:05;93624.41;;;18.11;54.66
57248;BME280;55809;46.618;10.764;2022-10-30T12:52:43;93646.09;;;18.18;53.27
57248;BME280;55809;46.618;10.764;2022-10-30T12:55:15;93627.84;;;17.99;53.64
57248;BME280;55809;46.618;10.764;2022-10-30T12:57:48;93631.50;;;17.76;53.18
57248;BME280;55809;46.618;10.764;2022-10-30T13:00:18;93628.53;;;17.70;56.46
57248;BME280;55809;46.618;10.764;2022-10-30T13:02:52;93635.06;;;17.73;56.71
57248;BME280;55809;46.618;10.764;2022-10-30T13:05:32;93640.97;;;17.71;57.18
57248;BME280;55809;46.618;10.764;2022-10-30T13:08:11;93640.31;;;17.67;57.69
57248;BME280;55809;46.618;10.764;2022-10-30T13:10:43;93632.97;;;17.64;58.06
57248;BME280;55809;46.618;10.764;2022-10-30T13:13:14;93630.31;;;17.61;58.81
57248;BME280;55809;46.618;10.764;2022-10-30T13:15:45;93632.88;;;17.51;59.53
57248;BME280;55809;46.618;10.764;2022-10-30T13:18:16;93624.94;;;17.41;60.23
57248;BME280;55809;46.618;10.764;2022-10-30T13:20:55;93621.50;;;17.37;60.68
57248;BME280;55809;46.618;10.764;2022-10-30T13:23:28;93618.44;;;17.34;60.74
57248;BME280;55809;46.618;10.764;2022-10-30T13:26:06;93616.28;;;17.26;61.34
57248;BME280;55809;46.618;10.764;2022-10-30T13:28:38;93592.63;;;17.03;61.69
57248;BME280;55809;46.618;10.764;2022-10-30T13:31:15;93616.09;;;17.17;61.75
57248;BME280;55809;46.618;10.764;2022-10-30T13:33:52;93611.91;;;17.12;61.79
57248;BME280;55809;46.618;10.764;2022-10-30T13:36:29;93583.41;;;16.97;61.97
57248;BME280;55809;46.618;10.764;2022-10-30T13:39:03;93602.53;;;17.13;61.68
57248;BME280;55809;46.618;10.764;2022-10-30T13:41:46;93607.72;;;17.07;62.32
57248;BME280;55809;46.618;10.764;2022-10-30T13:44:25;93605.41;;;17.06;62.53
57248;BME280;55809;46.618;10.764;2022-10-30T13:47:04;93606.19;;;17.06;62.93
57248;BME280;55809;46.618;10.764;2022-10-30T13:49:46;93585.94;;;16.87;63.02
57248;BME280;55809;46.618;10.764;2022-10-30T13:52:18;93604.81;;;16.98;63.48
57248;BME280;55809;46.618;10.764;2022-10-30T13:54:53;93611.50;;;16.94;63.70
57248;BME280;55809;46.618;10.764;2022-10-30T13:57:27;93613.19;;;16.87;64.41
57248;BME280;55809;46.618;10.764;2022-10-30T14:00:03;93584.13;;;16.61;64.56
57248;BME280;55809;46.618;10.764;2022-10-30T14:02:41;93610.34;;;16.75;64.58
57248;BME280;55809;46.618;10.764;2022-10-30T14:05:24;93580.50;;;16.48;65.03
57248;BME280;55809;46.618;10.764;2022-10-30T14:08:01;93614.09;;;16.61;64.96
57248;BME280;55809;46.618;10.764;2022-10-30T14:10:43;93601.38;;;16.54;65.06
57248;BME280;55809;46.618;10.764;2022-10-30T14:13:21;93591.59;;;16.37;65.52
57248;BME280;55809;46.618;10.764;2022-10-30T14:15:53;93603.13;;;16.25;65.38
57248;BME280;55809;46.618;10.764;2022-10-30T14:18:30;93607.38;;;16.06;65.50
57248;BME280;55809;46.618;10.764;2022-10-30T19:27:21;93735.03;;;12.08;75.01
57248;BME280;55809;46.618;10.764;2022-10-30T19:44:27;93711.81;;;11.79;73.31
57248;BME280;55809;46.618;10.764;2022-10-30T19:50:53;93653.06;;;11.33;73.27
